Stead, Nevada
Current Conditions -  °F | °C
As of 5:35 PM on Tuesday 25 Nov 2014 (Local Time) from KRTS Reporting Station
Clear Clear  
Wind Chill: 54°   Ceiling: Unl
Heat Index: 54°   Visibility: 10mi
Dew Point: 25°   Wind: 0mph
Humidity: 33%   Direction: NA
Pressure: 30.44"   Gusts: NA
Location:  39.7378°N, 119.889°W
Report Text: KRTS 260135Z AUTO 00000KT 10SM CLR 12/M04 A3044 RMK AO2
Loading
Personal Weather Stations






























Interactive Weather Map New forecast layout! Learn more

10-Day Weather Forecast

Advertisements
Track Severe Weather on mobile